createdAt,value
2022-11-08T00:01:59.772Z,101471.53
2022-11-08T00:04:27.454Z,101472.59
2022-11-08T00:07:17.507Z,101462.41
2022-11-08T00:10:04.161Z,101465.66
2022-11-08T00:12:50.481Z,101462.78
2022-11-08T00:15:18.636Z,101456.44
2022-11-08T00:17:46.546Z,101449.31
2022-11-08T00:20:17.026Z,101451.19
2022-11-08T00:22:44.736Z,101448.41
2022-11-08T00:25:12.324Z,101446.38
2022-11-08T00:27:39.732Z,101457.06
2022-11-08T00:30:07.889Z,101446.00
2022-11-08T00:32:35.747Z,101456.63
2022-11-08T00:35:03.264Z,101451.09
2022-11-08T00:37:30.608Z,101445.56
2022-11-08T00:39:59.562Z,101451.81
2022-11-08T00:42:27.136Z,101447.22
2022-11-08T00:44:54.637Z,101448.19
2022-11-08T00:47:24.411Z,101443.50
2022-11-08T00:49:52.205Z,101441.75
2022-11-08T00:52:20.273Z,101445.97
2022-11-08T00:54:47.953Z,101439.16
2022-11-08T00:57:15.633Z,101440.38
2022-11-08T00:59:43.385Z,101436.00
2022-11-08T01:02:11.379Z,101436.47
2022-11-08T01:04:39.804Z,101433.34
2022-11-08T01:07:07.151Z,101427.00
2022-11-08T01:09:34.735Z,101428.44
2022-11-08T01:12:02.410Z,101428.78
2022-11-08T01:14:30.005Z,101427.88
2022-11-08T01:16:57.843Z,101433.38
2022-11-08T01:19:25.408Z,101426.84
2022-11-08T01:21:54.005Z,101433.38
2022-11-08T01:24:21.725Z,101439.22
2022-11-08T01:26:52.156Z,101436.63
2022-11-08T01:29:19.914Z,101443.06
2022-11-08T01:31:49.129Z,101438.56
2022-11-08T01:34:16.735Z,101443.78
2022-11-08T01:36:44.212Z,101440.91
2022-11-08T01:39:12.050Z,101448.19
2022-11-08T01:41:39.960Z,101441.84
2022-11-08T01:44:16.739Z,101440.84
2022-11-08T01:46:46.773Z,101431.78
2022-11-08T01:49:34.543Z,101423.84
2022-11-08T01:52:18.136Z,101416.78
2022-11-08T01:55:01.781Z,101419.41
2022-11-08T01:57:48.800Z,101420.34
2022-11-08T02:00:18.475Z,101417.78
2022-11-08T02:02:52.080Z,101419.63
2022-11-08T02:05:26.461Z,101412.09
2022-11-08T02:08:03.584Z,101417.13
2022-11-08T02:10:37.395Z,101415.75
2022-11-08T02:13:13.362Z,101409.97
2022-11-08T02:15:43.162Z,101413.72
2022-11-08T02:18:15.644Z,101408.72
2022-11-08T02:20:50.393Z,101403.78
2022-11-08T02:23:28.829Z,101407.63
2022-11-08T02:25:56.314Z,101401.53
2022-11-08T02:28:23.946Z,101400.34
2022-11-08T02:30:51.957Z,101403.06
2022-11-08T02:33:23.170Z,101402.41
2022-11-08T02:35:54.434Z,101401.22
2022-11-08T02:38:24.492Z,101397.25
2022-11-08T02:40:54.370Z,101387.81
2022-11-08T02:43:23.813Z,101392.03
2022-11-08T02:45:52.598Z,101383.38
2022-11-08T02:48:20.880Z,101385.50
2022-11-08T02:50:49.708Z,101379.28
2022-11-08T02:53:18.004Z,101387.00
2022-11-08T02:55:46.051Z,101388.59
2022-11-08T02:58:14.246Z,101382.59
2022-11-08T03:00:42.330Z,101378.16
2022-11-08T03:03:10.039Z,101382.31
2022-11-08T03:05:37.465Z,101375.41
2022-11-08T03:08:05.484Z,101369.81
2022-11-08T03:10:33.205Z,101375.88
2022-11-08T03:13:07.359Z,101383.50
2022-11-08T03:15:35.086Z,101377.53
2022-11-08T03:18:03.485Z,101378.25
2022-11-08T03:20:33.126Z,101372.19
2022-11-08T03:23:04.377Z,101374.03
2022-11-08T03:25:32.418Z,101364.72
2022-11-08T03:28:08.098Z,101361.50
2022-11-08T03:30:37.147Z,101366.66
2022-11-08T03:33:10.189Z,101359.47
2022-11-08T03:35:38.269Z,101366.47
2022-11-08T03:38:05.829Z,101364.66
2022-11-08T03:40:33.550Z,101364.53
2022-11-08T03:43:01.963Z,101364.72
2022-11-08T03:45:30.042Z,101359.66
2022-11-08T03:47:57.721Z,101365.09
2022-11-08T03:50:25.239Z,101363.53
2022-11-08T03:52:55.257Z,101368.25
2022-11-08T03:55:26.024Z,101362.44
2022-11-08T03:57:54.411Z,101367.31
2022-11-08T04:00:25.748Z,101366.84
2022-11-08T04:02:55.747Z,101364.91
2022-11-08T04:05:24.011Z,101363.00
2022-11-08T04:07:51.797Z,101366.84
2022-11-08T04:10:21.924Z,101357.81
2022-11-08T04:13:07.827Z,101357.28
2022-11-08T04:15:35.582Z,101357.06
2022-11-08T04:18:22.133Z,101349.16
2022-11-08T04:21:08.566Z,101350.25
2022-11-08T04:23:37.781Z,101360.50
2022-11-08T04:26:08.491Z,101360.94
2022-11-08T04:28:38.120Z,101367.84
2022-11-08T04:31:09.158Z,101368.47
2022-11-08T04:33:36.904Z,101357.72
2022-11-08T04:36:07.950Z,101355.69
2022-11-08T04:38:35.917Z,101358.44
2022-11-08T04:41:10.262Z,101361.94
2022-11-08T04:43:38.435Z,101359.72
2022-11-08T04:46:12.557Z,101359.72
2022-11-08T04:48:40.934Z,101359.53
2022-11-08T04:51:23.643Z,101355.88
2022-11-08T04:53:51.692Z,101355.22
2022-11-08T04:56:21.763Z,101349.81
2022-11-08T04:58:51.992Z,101350.81
2022-11-08T05:01:22.147Z,101347.13
2022-11-08T05:03:51.732Z,101340.59
2022-11-08T05:06:25.253Z,101342.88
2022-11-08T05:08:54.085Z,101341.50
2022-11-08T05:11:23.664Z,101342.13
2022-11-08T05:13:52.345Z,101344.91
2022-11-08T05:16:22.712Z,101345.56
2022-11-08T05:18:50.438Z,101341.59
2022-11-08T05:21:38.892Z,101341.88
2022-11-08T05:24:08.280Z,101346.19
2022-11-08T05:26:38.604Z,101347.97
2022-11-08T05:29:07.001Z,101344.44
2022-11-08T05:31:35.245Z,101343.63
2022-11-08T05:34:03.526Z,101348.22
2022-11-08T05:36:32.313Z,101342.13
2022-11-08T05:39:00.566Z,101332.59
2022-11-08T05:41:28.845Z,101334.50
2022-11-08T05:43:56.796Z,101325.31
2022-11-08T05:46:25.085Z,101333.31
2022-11-08T05:48:53.050Z,101338.28
2022-11-08T05:51:23.734Z,101335.34
2022-11-08T05:53:55.250Z,101336.09
2022-11-08T05:56:24.583Z,101338.59
2022-11-08T05:58:53.861Z,101334.06
2022-11-08T06:01:22.879Z,101333.25
2022-11-08T06:03:51.253Z,101330.75
2022-11-08T06:06:21.490Z,101329.56
2022-11-08T06:08:52.851Z,101335.06
2022-11-08T06:11:24.931Z,101329.00
2022-11-08T06:13:53.462Z,101333.69
2022-11-08T06:16:22.311Z,101337.84
2022-11-08T06:18:49.930Z,101336.44
2022-11-08T06:21:21.021Z,101348.06
2022-11-08T06:23:49.181Z,101346.97
2022-11-08T06:26:16.769Z,101343.09
2022-11-08T06:28:44.349Z,101350.19
2022-11-08T06:31:12.080Z,101346.50
2022-11-08T06:33:40.452Z,101339.31
2022-11-08T06:36:08.320Z,101343.94
2022-11-08T06:38:36.253Z,101337.75
2022-11-08T06:41:03.687Z,101343.75
2022-11-08T06:43:32.410Z,101347.06
2022-11-08T06:46:03.385Z,101339.94
2022-11-08T06:48:35.557Z,101343.19
2022-11-08T06:51:04.571Z,101349.34
2022-11-08T06:53:32.548Z,101345.94
2022-11-08T06:56:01.404Z,101335.63
2022-11-08T06:58:31.984Z,101345.66
2022-11-08T07:01:03.004Z,101347.25
2022-11-08T07:03:31.693Z,101353.97
2022-11-08T07:06:08.792Z,101350.13
2022-11-08T07:08:37.007Z,101352.19
2022-11-08T07:11:07.885Z,101354.03
2022-11-08T07:13:37.067Z,101351.63
2022-11-08T07:16:07.309Z,101355.72
2022-11-08T07:18:35.822Z,101351.75
2022-11-08T07:21:05.033Z,101356.53
2022-11-08T07:23:32.999Z,101368.84
2022-11-08T07:26:05.620Z,101358.25
2022-11-08T07:28:34.990Z,101362.81
2022-11-08T07:31:05.452Z,101364.72
2022-11-08T07:33:34.551Z,101373.66
2022-11-08T07:36:03.542Z,101366.94
2022-11-08T07:38:32.054Z,101372.09
2022-11-08T07:41:00.586Z,101369.88
2022-11-08T07:43:30.390Z,101375.19
2022-11-08T07:46:09.003Z,101371.91
2022-11-08T07:48:38.539Z,101370.28
2022-11-08T07:51:07.294Z,101376.69
2022-11-08T07:53:35.364Z,101377.06
2022-11-08T07:56:06.507Z,101380.44
2022-11-08T07:58:35.252Z,101381.66
2022-11-08T08:01:18.891Z,101376.13
2022-11-08T08:03:58.430Z,101384.13
2022-11-08T08:06:26.984Z,101386.22
2022-11-08T08:08:56.319Z,101388.47
2022-11-08T08:11:27.130Z,101387.88
2022-11-08T08:13:57.776Z,101388.13
2022-11-08T08:16:25.822Z,101390.84
2022-11-08T08:18:56.617Z,101387.13
2022-11-08T08:21:25.308Z,101385.69
2022-11-08T08:23:53.470Z,101390.03
2022-11-08T08:26:21.988Z,101394.75
2022-11-08T08:28:49.829Z,101395.38
2022-11-08T08:31:18.366Z,101387.59
2022-11-08T08:33:50.599Z,101389.88
2022-11-08T08:36:19.211Z,101390.31
2022-11-08T08:38:46.842Z,101391.94
2022-11-08T08:41:14.499Z,101396.09
2022-11-08T08:43:42.611Z,101399.44
2022-11-08T08:46:10.740Z,101394.47
2022-11-08T08:48:39.466Z,101397.41
2022-11-08T08:51:07.682Z,101388.50
2022-11-08T08:53:36.945Z,101398.44
2022-11-08T08:56:06.451Z,101408.63
2022-11-08T08:58:34.630Z,101401.44
2022-11-08T09:03:52.229Z,101406.56
2022-11-08T09:06:20.744Z,101403.66
2022-11-08T09:08:49.376Z,101402.88
2022-11-08T09:11:19.761Z,101404.31
2022-11-08T09:13:47.787Z,101414.84
2022-11-08T09:16:15.848Z,101407.84
2022-11-08T09:18:43.687Z,101406.22
2022-11-08T09:21:11.333Z,101406.84
2022-11-08T09:23:39.139Z,101402.13
2022-11-08T09:26:07.280Z,101407.72
2022-11-08T09:28:37.776Z,101406.88
2022-11-08T09:31:10.103Z,101407.75
2022-11-08T09:33:39.565Z,101407.09
2022-11-08T09:36:10.057Z,101402.34
2022-11-08T09:38:38.404Z,101406.69
2022-11-08T09:41:06.314Z,101408.56
2022-11-08T09:43:40.016Z,101403.56
2022-11-08T09:46:12.549Z,101399.84
2022-11-08T09:48:44.726Z,101404.81
2022-11-08T09:51:23.692Z,101403.19
2022-11-08T09:54:00.293Z,101396.34
2022-11-08T09:56:35.065Z,101404.59
2022-11-08T09:59:13.918Z,101403.38
2022-11-08T10:01:43.210Z,101401.31
2022-11-08T10:04:21.608Z,101402.16
2022-11-08T10:07:14.456Z,101402.75
2022-11-08T10:10:05.902Z,101399.03
2022-11-08T10:13:05.661Z,101398.63
2022-11-08T10:16:02.291Z,101391.41
2022-11-08T10:18:36.620Z,101389.09
2022-11-08T10:21:19.678Z,101394.84
2022-11-08T10:24:02.536Z,101393.16
2022-11-08T10:26:42.822Z,101390.84
2022-11-08T10:29:27.700Z,101393.13
2022-11-08T10:32:23.320Z,101394.75
2022-11-08T10:34:55.065Z,101395.34
2022-11-08T10:37:27.566Z,101392.84
2022-11-08T10:40:02.476Z,101395.31
2022-11-08T10:42:39.741Z,101391.31
2022-11-08T10:45:10.160Z,101379.25
2022-11-08T10:47:39.687Z,101381.47
2022-11-08T10:50:25.778Z,101375.81
2022-11-08T10:53:01.026Z,101375.38
2022-11-08T10:55:39.365Z,101365.00
2022-11-08T10:58:30.970Z,101362.03
2022-11-08T11:01:18.600Z,101357.22
2022-11-08T11:03:48.180Z,101357.41
2022-11-08T11:06:30.309Z,101357.34
2022-11-08T11:09:00.492Z,101349.44
2022-11-08T11:11:37.508Z,101355.38
2022-11-08T11:14:22.294Z,101345.75
2022-11-08T11:16:58.617Z,101346.47
2022-11-08T11:19:29.038Z,101350.06
2022-11-08T11:22:08.775Z,101344.38
2022-11-08T11:24:37.189Z,101344.66
2022-11-08T11:27:21.882Z,101346.59
2022-11-08T11:29:49.420Z,101349.00
2022-11-08T11:32:34.666Z,101343.91
2022-11-08T11:35:04.784Z,101342.78
2022-11-08T11:37:43.596Z,101343.69
2022-11-08T11:40:20.688Z,101342.69
2022-11-08T11:43:06.813Z,101334.84
2022-11-08T11:49:14.338Z,101325.19
2022-11-08T11:51:41.880Z,101318.94
2022-11-08T11:54:15.568Z,101317.00
2022-11-08T11:56:55.864Z,101314.53
2022-11-08T12:00:11.512Z,101307.50
2022-11-08T12:03:01.700Z,101305.38
2022-11-08T12:06:10.671Z,101305.19
2022-11-08T12:08:52.996Z,101300.47
2022-11-08T12:11:29.486Z,101295.31
2022-11-08T12:14:09.049Z,101292.25
2022-11-08T12:16:55.440Z,101285.56
2022-11-08T12:19:44.274Z,101276.25
2022-11-08T12:22:36.391Z,101271.28
2022-11-08T12:25:54.687Z,101265.75
2022-11-08T12:28:26.979Z,101260.56
2022-11-08T12:31:03.762Z,101262.47
2022-11-08T12:34:02.542Z,101259.63
2022-11-08T12:37:07.662Z,101260.94
2022-11-08T12:40:34.871Z,101258.78
2022-11-08T12:43:30.076Z,101247.63
2022-11-08T12:46:05.100Z,101248.09
2022-11-08T12:49:05.745Z,101244.09
2022-11-08T12:52:16.389Z,101242.91
2022-11-08T12:54:54.894Z,101235.41
2022-11-08T12:57:28.551Z,101231.63
2022-11-08T13:00:03.281Z,101223.84
2022-11-08T13:02:34.648Z,101213.63
2022-11-08T13:05:17.372Z,101202.66
2022-11-08T13:07:52.820Z,101206.91
2022-11-08T13:10:39.378Z,101215.25
2022-11-08T13:13:15.033Z,101204.53
2022-11-08T13:16:16.840Z,101199.22
2022-11-08T13:18:57.123Z,101199.81
2022-11-08T13:21:30.802Z,101196.72
2022-11-08T13:24:09.835Z,101191.53
2022-11-08T13:26:43.545Z,101192.72
2022-11-08T13:29:15.140Z,101179.66
2022-11-08T13:32:19.934Z,101185.44
2022-11-08T13:35:13.424Z,101176.22
2022-11-08T13:37:56.871Z,101175.97
2022-11-08T13:40:54.885Z,101179.84
2022-11-08T13:43:31.855Z,101178.47
2022-11-08T13:46:28.202Z,101172.81
2022-11-08T13:49:05.800Z,101175.66
2022-11-08T13:51:54.603Z,101165.63
2022-11-08T13:54:22.559Z,101171.78
2022-11-08T13:57:06.334Z,101170.94
2022-11-08T13:59:34.074Z,101167.69
2022-11-08T14:02:27.226Z,101163.31
2022-11-08T14:05:12.562Z,101173.59
2022-11-08T14:08:14.178Z,101174.84
2022-11-08T14:11:20.953Z,101168.53
2022-11-08T14:14:13.382Z,101169.28
2022-11-08T14:16:53.590Z,101178.84
2022-11-08T14:19:27.355Z,101176.63
2022-11-08T14:22:10.793Z,101175.22
2022-11-08T14:24:39.906Z,101179.81
2022-11-08T14:27:07.705Z,101167.22
2022-11-08T14:29:35.515Z,101163.72
2022-11-08T14:32:08.201Z,101152.66
2022-11-08T14:34:39.731Z,101166.19
2022-11-08T14:37:26.835Z,101162.06
2022-11-08T14:39:55.104Z,101159.47
2022-11-08T14:42:25.625Z,101166.75
2022-11-08T14:44:56.192Z,101164.63
2022-11-08T14:47:30.642Z,101157.94
2022-11-08T14:50:01.250Z,101166.75
2022-11-08T14:52:31.323Z,101147.59
2022-11-08T14:55:11.940Z,101156.53
2022-11-08T14:57:46.290Z,101152.66
2022-11-08T15:00:15.939Z,101145.94
2022-11-08T15:02:51.488Z,101154.06
2022-11-08T15:05:38.412Z,101143.13
2022-11-08T15:08:18.271Z,101143.84
2022-11-08T15:11:01.721Z,101137.97
2022-11-08T15:13:33.088Z,101139.63
2022-11-08T15:16:05.957Z,101133.59
2022-11-08T15:18:40.938Z,101129.50
2022-11-08T15:21:29.936Z,101143.84
2022-11-08T15:24:16.180Z,101148.59
2022-11-08T15:27:17.145Z,101139.06
2022-11-08T15:30:02.439Z,101140.69
2022-11-08T15:32:41.000Z,101149.16
2022-11-08T15:35:21.355Z,101149.41
2022-11-08T15:37:53.217Z,101143.88
2022-11-08T15:40:24.830Z,101151.44
2022-11-08T15:42:56.081Z,101145.53
2022-11-08T15:45:36.202Z,101147.19
2022-11-08T15:48:09.628Z,101142.50
2022-11-08T15:50:41.023Z,101139.66
2022-11-08T15:53:10.686Z,101140.28
2022-11-08T15:55:42.277Z,101138.63
2022-11-08T15:58:42.073Z,101135.22
2022-11-08T16:01:22.565Z,101142.97
2022-11-08T16:03:50.329Z,101136.38
2022-11-08T16:06:18.605Z,101129.56
2022-11-08T16:08:46.440Z,101129.34
2022-11-08T16:11:20.771Z,101126.28
2022-11-08T16:13:49.629Z,101125.72
2022-11-08T16:16:18.429Z,101125.34
2022-11-08T16:18:46.396Z,101122.03
2022-11-08T16:21:15.078Z,101127.34
2022-11-08T16:23:43.201Z,101130.38
2022-11-08T16:26:18.516Z,101136.22
2022-11-08T16:28:46.558Z,101131.59
2022-11-08T16:31:16.565Z,101127.84
2022-11-08T16:33:46.283Z,101131.50
2022-11-08T16:36:23.667Z,101132.88
2022-11-08T16:38:56.963Z,101134.16
2022-11-08T16:41:37.632Z,101133.56
2022-11-08T16:44:08.676Z,101146.69
2022-11-08T16:46:36.937Z,101147.38
2022-11-08T16:49:06.049Z,101149.94
2022-11-08T16:51:34.328Z,101149.56
2022-11-08T16:54:31.864Z,101136.75
2022-11-08T16:57:28.510Z,101149.28
2022-11-08T16:59:51.972Z,101141.28
2022-11-08T17:02:31.015Z,101146.09
2022-11-08T17:04:59.541Z,101151.94
2022-11-08T17:07:30.147Z,101153.00
2022-11-08T17:10:01.118Z,101153.44
2022-11-08T17:12:29.777Z,101156.59
2022-11-08T17:15:17.795Z,101159.13
2022-11-08T17:17:46.664Z,101154.78
2022-11-08T17:20:36.515Z,101167.06
2022-11-08T17:23:04.237Z,101171.03
2022-11-08T17:25:31.994Z,101170.00
2022-11-08T17:28:01.243Z,101166.09
2022-11-08T17:30:29.211Z,101158.81
2022-11-08T17:32:57.088Z,101161.75
2022-11-08T17:35:24.943Z,101173.34
2022-11-08T17:37:53.881Z,101172.75
2022-11-08T17:40:33.513Z,101174.03
2022-11-08T17:43:01.690Z,101171.56
2022-11-08T17:45:34.179Z,101171.56
2022-11-08T17:48:26.810Z,101179.03
2022-11-08T17:50:58.343Z,101180.91
2022-11-08T17:53:26.517Z,101180.91
2022-11-08T17:56:02.469Z,101187.56
2022-11-08T17:58:33.947Z,101184.06
2022-11-08T18:04:00.926Z,101190.72
2022-11-08T18:06:31.599Z,101197.53
2022-11-08T18:09:01.334Z,101192.38
2022-11-08T18:11:38.003Z,101199.03
2022-11-08T18:14:15.420Z,101202.16
2022-11-08T18:16:49.760Z,101206.72
2022-11-08T18:19:26.493Z,101206.16
2022-11-08T18:21:54.283Z,101207.19
2022-11-08T18:24:25.458Z,101210.91
2022-11-08T18:26:56.601Z,101210.53
2022-11-08T18:29:24.723Z,101219.22
2022-11-08T18:31:52.980Z,101214.06
2022-11-08T18:34:20.607Z,101220.50
2022-11-08T18:36:50.855Z,101219.47
2022-11-08T18:39:19.953Z,101218.84
2022-11-08T18:41:52.008Z,101218.25
2022-11-08T18:44:20.266Z,101223.41
2022-11-08T18:46:48.264Z,101218.03
2022-11-08T18:49:16.848Z,101220.31
2022-11-08T18:51:44.761Z,101223.88
2022-11-08T18:54:12.518Z,101226.78
2022-11-08T18:56:40.657Z,101228.06
2022-11-08T18:59:11.885Z,101229.91
2022-11-08T19:01:40.052Z,101232.59
2022-11-08T19:04:08.667Z,101228.50
2022-11-08T19:06:40.580Z,101230.34
2022-11-08T19:09:09.117Z,101236.78
2022-11-08T19:11:42.003Z,101233.25
2022-11-08T19:14:10.256Z,101228.91
2022-11-08T19:16:42.375Z,101231.84
2022-11-08T19:19:10.663Z,101237.22
2022-11-08T19:21:47.975Z,101228.56
2022-11-08T19:24:19.402Z,101232.28
2022-11-08T19:26:47.804Z,101237.91
2022-11-08T19:29:16.372Z,101241.84
2022-11-08T19:31:46.162Z,101235.84
2022-11-08T19:34:14.460Z,101233.38
2022-11-08T19:36:45.427Z,101234.66
2022-11-08T19:39:14.000Z,101237.34
2022-11-08T19:41:42.478Z,101238.38
2022-11-08T19:44:11.929Z,101235.69
2022-11-08T19:46:45.558Z,101234.84
2022-11-08T19:49:26.084Z,101236.13
2022-11-08T19:51:54.911Z,101238.84
2022-11-08T19:54:22.979Z,101242.56
2022-11-08T19:57:04.831Z,101245.97
2022-11-08T19:59:34.455Z,101245.53
2022-11-08T20:02:03.503Z,101251.97
2022-11-08T20:04:31.802Z,101249.94
2022-11-08T20:06:59.635Z,101249.13
2022-11-08T20:09:30.837Z,101248.50
2022-11-08T20:11:59.001Z,101259.91
2022-11-08T20:14:26.546Z,101261.19
2022-11-08T20:16:55.927Z,101261.03
2022-11-08T20:19:23.601Z,101267.09
2022-11-08T20:21:51.704Z,101265.44
2022-11-08T20:24:20.153Z,101264.00
2022-11-08T20:26:50.994Z,101266.34
2022-11-08T20:29:19.930Z,101266.53
2022-11-08T20:31:53.096Z,101265.09
2022-11-08T20:34:32.375Z,101260.72
2022-11-08T20:37:01.132Z,101257.69
2022-11-08T20:39:28.658Z,101262.06
2022-11-08T20:41:56.633Z,101267.44
2022-11-08T20:44:25.227Z,101271.75
2022-11-08T20:46:53.083Z,101278.19
2022-11-08T20:49:21.211Z,101282.72
2022-11-08T20:51:48.715Z,101274.50
2022-11-08T20:54:17.078Z,101279.25
2022-11-08T20:56:44.751Z,101282.97
2022-11-08T20:59:12.962Z,101283.81
2022-11-08T21:01:43.233Z,101282.59
2022-11-08T21:04:10.829Z,101284.84
2022-11-08T21:06:41.895Z,101286.31
2022-11-08T21:09:34.417Z,101289.22
2022-11-08T21:12:13.859Z,101289.41
2022-11-08T21:14:41.408Z,101283.22
2022-11-08T21:17:21.800Z,101284.25
2022-11-08T21:19:51.734Z,101287.56
2022-11-08T21:22:19.665Z,101288.63
2022-11-08T21:24:48.845Z,101291.31
2022-11-08T21:27:17.236Z,101290.88
2022-11-08T21:29:45.181Z,101304.94
2022-11-08T21:32:12.878Z,101304.94
2022-11-08T21:34:46.661Z,101299.78
2022-11-08T21:37:23.698Z,101300.00
2022-11-08T21:39:51.353Z,101295.88
2022-11-08T21:42:19.017Z,101297.53
2022-11-08T21:44:46.599Z,101306.41
2022-11-08T21:47:14.351Z,101302.28
2022-11-08T21:49:42.405Z,101301.66
2022-11-08T21:52:10.400Z,101314.28
2022-11-08T21:55:12.268Z,101306.19
2022-11-08T21:57:43.866Z,101300.44
2022-11-08T22:00:13.481Z,101310.53
2022-11-08T22:02:41.942Z,101299.78
2022-11-08T22:05:11.518Z,101301.44
2022-11-08T22:07:39.721Z,101303.13
2022-11-08T22:10:08.904Z,101298.56
2022-11-08T22:12:45.261Z,101292.78
2022-11-08T22:15:19.270Z,101296.72
2022-11-08T22:18:14.284Z,101298.16
2022-11-08T22:20:34.866Z,101299.41
2022-11-08T22:23:08.671Z,101299.81
2022-11-08T22:25:37.580Z,101308.69
2022-11-08T22:28:10.227Z,101308.91
2022-11-08T22:30:43.318Z,101302.72
2022-11-08T22:33:11.976Z,101297.53
2022-11-08T22:35:48.627Z,101298.56
2022-11-08T22:38:20.251Z,101297.94
2022-11-08T22:40:55.793Z,101293.81
2022-11-08T22:43:29.323Z,101300.84
2022-11-08T22:45:57.839Z,101304.34
2022-11-08T22:48:26.618Z,101303.31
2022-11-08T22:50:58.294Z,101300.84
2022-11-08T22:53:26.690Z,101288.00
2022-11-08T22:55:55.455Z,101302.91
2022-11-08T22:58:24.447Z,101291.53
2022-11-08T23:00:56.561Z,101295.88
2022-11-08T23:03:31.877Z,101304.16
2022-11-08T23:06:11.980Z,101300.44
2022-11-08T23:08:40.773Z,101299.16
2022-11-08T23:11:27.991Z,101294.63
2022-11-08T23:14:15.261Z,101293.38
2022-11-08T23:16:45.895Z,101285.75
2022-11-08T23:19:39.310Z,101279.94
2022-11-08T23:22:29.989Z,101285.47
2022-11-08T23:24:58.188Z,101283.00
2022-11-08T23:27:45.454Z,101282.56
2022-11-08T23:30:34.912Z,101274.72
2022-11-08T23:33:07.817Z,101273.47
2022-11-08T23:35:38.197Z,101271.41
2022-11-08T23:38:06.347Z,101272.03
2022-11-08T23:40:52.870Z,101271.41
2022-11-08T23:43:43.251Z,101264.97
2022-11-08T23:46:15.403Z,101270.75
2022-11-08T23:48:48.483Z,101267.63
2022-11-08T23:51:15.733Z,101268.03
2022-11-08T23:53:44.274Z,101264.34
2022-11-08T23:56:20.738Z,101269.09
2022-11-08T23:58:48.872Z,101261.22
